Time;durP1;ratioP1;P1;durP2;ratioP2;P2;SDS_P1;SDS_P2;PMS_P1;PMS_P2;Temp;Humidity;BMP_temperature;BMP_pressure;BME280_temperature;BME280_humidity;BME280_pressure;Samples;Min_cycle;Max_cycle;Signal;HPM_P1;HPM_P2
2023/10/19 00:00:44;;;;;;;;;2.00;0.33;;;;;17.41;78.01;99044.53;5029647;28;45498;-67
2023/10/19 00:03:11;;;;;;;;;1.33;1.00;;;;;17.33;78.17;99026.44;5024102;28;45492;-71
2023/10/19 00:05:38;;;;;;;;;1.67;1.00;;;;;17.35;78.59;99041.28;5026588;28;45409;-70
2023/10/19 00:08:42;;;;;;;;;3.00;0.67;;;;;17.34;78.82;99041.34;5028790;28;45501;-70
2023/10/19 00:11:27;;;;;;;;;3.67;1.00;;;;;17.27;79.17;99040.81;5039601;28;45479;-70
2023/10/19 00:13:57;;;;;;;;;5.00;1.67;;;;;17.20;79.20;99023.56;5048235;28;45543;-70
2023/10/19 00:16:35;;;;;;;;;1.00;1.00;;;;;17.29;79.35;99040.75;5026250;28;45479;-69
2023/10/19 00:19:03;;;;;;;;;1.00;1.00;;;;;17.11;79.13;99016.13;5020056;28;45445;-68
2023/10/19 00:21:29;;;;;;;;;1.00;1.00;;;;;17.31;79.42;99042.38;5028646;28;45495;-71
2023/10/19 00:23:57;;;;;;;;;3.00;1.33;;;;;17.29;79.63;99044.25;5032496;28;45372;-68
2023/10/19 00:26:31;;;;;;;;;3.67;1.00;;;;;17.26;79.48;99031.19;5033421;28;45491;-69
2023/10/19 00:28:59;;;;;;;;;1.67;1.00;;;;;17.26;79.52;99022.41;5034404;28;46470;-68
2023/10/19 00:31:34;;;;;;;;;1.00;1.00;;;;;17.31;79.12;99037.09;5034715;28;45711;-69
2023/10/19 00:34:11;;;;;;;;;2.00;2.00;;;;;17.26;79.08;99017.09;5034203;28;45440;-69
2023/10/19 00:36:39;;;;;;;;;2.00;2.00;;;;;17.30;79.08;99023.97;5043062;28;45445;-66
2023/10/19 00:39:14;;;;;;;;;1.00;0.33;;;;;17.41;79.18;99050.69;5016640;28;45806;-67
2023/10/19 00:41:40;;;;;;;;;2.00;1.67;;;;;17.44;79.18;99033.78;5035293;28;46250;-68
2023/10/19 00:44:12;;;;;;;;;4.00;1.00;;;;;17.36;78.97;99021.81;5026399;28;45403;-70
2023/10/19 00:49:09;;;;;;;;;2.00;1.00;;;;;17.40;78.89;99024.31;5019743;28;45449;-70
2023/10/19 00:52:02;;;;;;;;;7.00;2.00;;;;;17.42;79.08;99025.94;5021032;28;46607;-71
2023/10/19 00:54:47;;;;;;;;;2.33;1.00;;;;;17.39;79.43;99020.78;5027303;28;45433;-66
2023/10/19 00:57:13;;;;;;;;;4.67;2.00;;;;;17.37;79.58;99010.31;5038272;28;45265;-68
2023/10/19 00:59:47;;;;;;;;;1.00;1.00;;;;;17.36;79.81;99000.63;5041527;28;45518;-66
2023/10/19 01:04:50;;;;;;;;;3.67;2.00;;;;;17.35;80.13;99003.38;5032992;28;46098;-67
2023/10/19 01:07:38;;;;;;;;;4.00;2.00;;;;;17.34;80.19;99013.09;5032085;28;45391;-67
2023/10/19 01:10:05;;;;;;;;;5.00;2.00;;;;;17.32;80.62;99008.81;5028834;28;45519;-66
2023/10/19 01:15:06;;;;;;;;;5.00;2.00;;;;;17.30;80.95;99002.78;5034839;28;45338;-67
2023/10/19 01:17:38;;;;;;;;;3.33;1.33;;;;;17.23;81.21;98983.72;5023328;28;45433;-68
2023/10/19 01:20:13;;;;;;;;;3.33;2.00;;;;;17.30;81.08;98992.19;5021850;28;45699;-66
2023/10/19 01:22:46;;;;;;;;;4.00;2.00;;;;;17.20;81.58;98969.78;5024820;28;45683;-67
2023/10/19 01:25:16;;;;;;;;;5.67;2.67;;;;;17.15;82.02;98964.75;5021735;28;45556;-67
2023/10/19 01:27:42;;;;;;;;;2.00;1.33;;;;;17.21;82.16;98974.16;5026866;28;45454;-66
2023/10/19 01:30:09;;;;;;;;;6.67;3.00;;;;;17.16;82.40;98967.31;5025418;28;45397;-67
2023/10/19 01:32:35;;;;;;;;;2.33;1.00;;;;;17.20;82.40;98972.44;5028920;28;46074;-66
2023/10/19 01:35:01;;;;;;;;;1.00;1.00;;;;;17.14;82.93;98955.13;5026727;28;45491;-68
2023/10/19 01:37:26;;;;;;;;;5.00;2.00;;;;;17.19;82.77;98960.16;5027460;28;45584;-67
2023/10/19 01:39:59;;;;;;;;;2.00;2.00;;;;;17.08;83.28;98934.28;5015948;28;45446;-66
2023/10/19 01:42:27;;;;;;;;;2.00;2.00;;;;;17.06;83.38;98939.66;5031953;28;47559;-67
2023/10/19 01:44:52;;;;;;;;;4.33;2.00;;;;;17.05;83.48;98935.28;5034417;28;45490;-68
2023/10/19 01:47:20;;;;;;;;;9.33;3.33;;;;;17.11;83.94;98940.28;5022516;28;45386;-67
2023/10/19 01:49:52;;;;;;;;;3.00;3.00;;;;;17.12;83.64;98939.31;5035600;28;45534;-65
2023/10/19 01:52:17;;;;;;;;;2.67;1.00;;;;;17.04;84.14;98924.81;5036510;28;46505;-65
2023/10/19 01:54:43;;;;;;;;;2.33;1.67;;;;;17.01;84.06;98911.72;5027387;28;45478;-67
2023/10/19 01:57:09;;;;;;;;;2.67;1.00;;;;;17.13;83.90;98926.94;5030376;28;45354;-66
2023/10/19 01:59:35;;;;;;;;;3.33;2.00;;;;;16.77;83.73;98869.75;5036093;28;45357;-67
2023/10/19 02:02:02;;;;;;;;;1.00;1.00;;;;;17.15;83.73;98914.50;5035316;28;46594;-67
2023/10/19 02:04:28;;;;;;;;;7.33;2.00;;;;;17.13;83.89;98913.72;5035399;28;45421;-66
2023/10/19 02:06:53;;;;;;;;;2.67;1.00;;;;;17.07;83.90;98906.13;5051417;28;45308;-66
2023/10/19 02:09:28;;;;;;;;;3.00;1.67;;;;;17.14;83.89;98916.28;5036441;28;45654;-67
2023/10/19 02:11:57;;;;;;;;;6.67;2.00;;;;;17.05;83.79;98900.06;5027218;28;45369;-67
2023/10/19 02:14:25;;;;;;;;;5.00;1.67;;;;;17.08;84.10;98905.19;5046767;28;45645;-67
2023/10/19 02:16:59;;;;;;;;;2.67;2.67;;;;;17.01;84.69;98887.94;5037443;28;45342;-66
2023/10/19 02:19:27;;;;;;;;;2.67;2.00;;;;;16.99;84.59;98885.38;5037139;28;45475;-66
2023/10/19 02:22:00;;;;;;;;;4.33;2.00;;;;;17.00;84.64;98880.94;5036810;28;45678;-67
2023/10/19 02:24:26;;;;;;;;;2.67;2.00;;;;;17.03;84.50;98886.91;5035168;28;45560;-66
2023/10/19 02:26:55;;;;;;;;;2.67;2.00;;;;;16.89;84.50;98874.41;5047959;28;45300;-65
2023/10/19 02:29:25;;;;;;;;;4.00;2.67;;;;;16.98;84.79;98883.66;5023643;28;45507;-67
2023/10/19 02:31:52;;;;;;;;;3.00;1.33;;;;;16.60;84.78;98822.22;5026522;28;45506;-67
2023/10/19 02:34:18;;;;;;;;;7.67;2.00;;;;;16.93;84.98;98877.78;5037219;28;45357;-65
2023/10/19 02:36:45;;;;;;;;;3.00;1.00;;;;;16.93;84.75;98873.31;5030378;28;45607;-66
2023/10/19 02:39:14;;;;;;;;;4.00;2.67;;;;;16.98;85.04;98886.31;5034945;28;45489;-67
2023/10/19 02:41:44;;;;;;;;;2.67;2.00;;;;;16.95;84.88;98887.31;5047494;28;45498;-69
2023/10/19 02:46:45;;;;;;;;;2.00;2.00;;;;;16.76;84.79;98849.56;5021359;28;45566;-68
2023/10/19 02:49:13;;;;;;;;;2.00;1.33;;;;;16.97;84.76;98878.47;5026814;28;45224;-70
2023/10/19 02:51:40;;;;;;;;;4.33;1.33;;;;;16.88;84.82;98866.59;5023974;28;46199;-67
2023/10/19 02:54:15;;;;;;;;;3.00;2.33;;;;;16.89;85.07;98863.00;5018563;28;45466;-65
2023/10/19 02:56:42;;;;;;;;;3.00;2.00;;;;;16.89;85.04;98869.13;5019287;28;45492;-67
2023/10/19 02:59:10;;;;;;;;;5.67;1.00;;;;;16.87;85.01;98881.59;5022602;28;45580;-67
2023/10/19 03:01:38;;;;;;;;;1.00;0.67;;;;;16.84;84.98;98876.47;5026871;28;45743;-66
2023/10/19 03:04:04;;;;;;;;;1.33;1.33;;;;;16.89;84.87;98876.22;5051138;28;45451;-67
2023/10/19 03:06:33;;;;;;;;;4.00;1.33;;;;;16.73;84.90;98847.94;5038534;28;45378;-67
2023/10/19 03:09:13;;;;;;;;;2.67;2.00;;;;;16.88;84.90;98872.72;5038917;28;45352;-66
2023/10/19 03:11:43;;;;;;;;;4.67;1.67;;;;;16.89;84.85;98863.00;5038198;28;45576;-67
2023/10/19 03:14:13;;;;;;;;;5.33;3.00;;;;;16.89;84.72;98855.06;5039443;28;45305;-66
2023/10/19 03:16:42;;;;;;;;;2.67;2.00;;;;;16.91;84.89;98846.09;5039743;28;45480;-67
2023/10/19 03:19:08;;;;;;;;;3.67;1.67;;;;;16.89;84.47;98850.63;5035951;28;45429;-68
2023/10/19 03:21:43;;;;;;;;;3.33;2.00;;;;;16.60;84.77;98825.72;5037744;28;45961;-66
2023/10/19 03:24:23;;;;;;;;;5.67;3.33;;;;;16.87;84.53;98856.94;5033249;28;45532;-67
2023/10/19 03:26:51;;;;;;;;;3.00;2.00;;;;;16.83;84.57;98835.09;5019170;28;45369;-65
2023/10/19 03:29:22;;;;;;;;;5.33;2.33;;;;;16.85;84.62;98842.97;5021806;28;45508;-67
2023/10/19 03:31:47;;;;;;;;;3.67;1.00;;;;;16.81;85.11;98850.19;5027571;28;45431;-66
2023/10/19 03:34:16;;;;;;;;;3.67;2.67;;;;;16.80;84.92;98852.91;5020707;28;45523;-66
2023/10/19 03:36:42;;;;;;;;;2.67;1.33;;;;;16.70;85.11;98836.66;5021429;28;45363;-66
2023/10/19 03:39:12;;;;;;;;;8.00;1.67;;;;;16.79;85.15;98845.94;5021322;28;45484;-67
2023/10/19 03:41:44;;;;;;;;;2.67;1.33;;;;;16.64;85.36;98823.78;5030769;28;45606;-67
2023/10/19 03:44:24;;;;;;;;;4.00;1.00;;;;;16.32;85.57;98776.13;5022727;28;45372;-68
2023/10/19 03:46:55;;;;;;;;;5.33;1.00;;;;;16.29;85.69;98778.94;5019793;28;45430;-68
2023/10/19 03:49:23;;;;;;;;;2.00;2.00;;;;;16.44;85.82;98801.88;5039449;28;45548;-66
2023/10/19 03:51:58;;;;;;;;;4.00;1.00;;;;;16.19;85.30;98746.88;5039472;28;45599;-67
2023/10/19 03:54:27;;;;;;;;;3.33;1.33;;;;;16.64;85.65;98813.22;5040248;28;45389;-71
2023/10/19 03:56:56;;;;;;;;;3.67;2.33;;;;;16.64;86.08;98821.16;5050148;28;45496;-70
2023/10/19 03:59:23;;;;;;;;;6.00;3.00;;;;;16.62;86.09;98826.50;5036354;28;45499;-70
2023/10/19 04:01:59;;;;;;;;;3.00;3.00;;;;;16.57;86.09;98810.03;5018359;28;45465;-67
2023/10/19 04:04:29;;;;;;;;;6.00;2.00;;;;;16.64;86.01;98807.94;5021787;28;45599;-67
2023/10/19 04:07:01;;;;;;;;;3.33;2.00;;;;;16.61;86.22;98803.66;5040675;28;45685;-67
2023/10/19 04:09:32;;;;;;;;;1.33;1.00;;;;;16.59;86.37;98808.19;5037687;28;45465;-69
2023/10/19 04:11:58;;;;;;;;;5.67;3.00;;;;;15.99;86.62;98725.94;5018868;28;45485;-71
2023/10/19 04:14:24;;;;;;;;;3.33;1.67;;;;;16.42;86.78;98798.50;5037385;28;45421;-71
2023/10/19 04:16:49;;;;;;;;;2.00;1.33;;;;;16.15;86.78;98737.41;5025944;28;45754;-70
2023/10/19 04:19:16;;;;;;;;;2.00;2.00;;;;;16.58;86.55;98814.38;5017635;28;45528;-67
2023/10/19 04:22:05;;;;;;;;;3.67;1.00;;;;;16.54;86.28;98789.91;5020166;28;46271;-67
2023/10/19 04:24:33;;;;;;;;;1.67;1.67;;;;;16.59;86.41;98791.47;5031836;28;45635;-68
2023/10/19 04:26:59;;;;;;;;;3.00;1.00;;;;;16.60;86.49;98779.94;5027539;28;45524;-68
2023/10/19 04:29:31;;;;;;;;;3.00;2.00;;;;;16.41;86.44;98751.00;5021340;28;45631;-66
2023/10/19 04:31:59;;;;;;;;;2.33;1.33;;;;;16.61;86.17;98776.34;5018579;28;45464;-67
2023/10/19 04:34:45;;;;;;;;;5.67;2.33;;;;;16.62;86.21;98772.78;5017585;28;45695;-67
2023/10/19 04:37:18;;;;;;;;;3.33;2.00;;;;;16.61;86.34;98769.31;5032673;28;45584;-66
2023/10/19 04:39:49;;;;;;;;;4.00;2.00;;;;;16.38;86.35;98744.09;5018304;28;45887;-68
2023/10/19 04:42:22;;;;;;;;;2.67;2.00;;;;;16.62;86.24;98765.72;5032745;28;46894;-67
2023/10/19 04:44:49;;;;;;;;;4.00;2.33;;;;;16.51;86.05;98737.25;5017863;28;45436;-68
2023/10/19 04:47:14;;;;;;;;;4.33;1.67;;;;;16.65;85.84;98754.97;5024456;28;46083;-69
2023/10/19 04:49:40;;;;;;;;;5.67;2.33;;;;;16.61;85.97;98761.38;5039019;28;45649;-67
2023/10/19 04:52:06;;;;;;;;;3.00;2.00;;;;;16.37;86.36;98723.88;5037969;28;45851;-66
2023/10/19 04:54:32;;;;;;;;;2.00;1.00;;;;;16.60;86.25;98753.53;5038484;28;45470;-67
2023/10/19 04:57:00;;;;;;;;;3.00;2.00;;;;;16.38;86.28;98717.69;5038004;28;45385;-69
2023/10/19 04:59:26;;;;;;;;;2.33;2.33;;;;;16.50;86.41;98732.88;5037911;28;45591;-65
2023/10/19 05:01:52;;;;;;;;;2.67;1.00;;;;;16.47;86.44;98714.56;5036781;28;45437;-66
2023/10/19 05:04:18;;;;;;;;;6.33;3.00;;;;;16.35;86.24;98687.91;5023587;28;45339;-67
2023/10/19 05:06:43;;;;;;;;;4.00;4.00;;;;;16.54;86.19;98709.78;5036900;28;45721;-69
2023/10/19 05:09:10;;;;;;;;;2.67;1.00;;;;;16.50;86.32;98713.53;5037088;28;45322;-66
2023/10/19 05:11:36;;;;;;;;;3.33;3.00;;;;;16.15;86.71;98666.09;5051814;28;45439;-66
2023/10/19 05:14:01;;;;;;;;;3.67;2.00;;;;;16.43;86.92;98734.13;5036231;28;45568;-68
2023/10/19 05:16:27;;;;;;;;;4.00;3.00;;;;;16.26;87.38;98713.06;5036952;28;45420;-67
2023/10/19 05:18:53;;;;;;;;;4.00;3.00;;;;;16.45;87.18;98731.44;5037112;28;45449;-66
2023/10/19 05:21:19;;;;;;;;;4.00;2.00;;;;;16.33;87.29;98709.16;5036549;28;46063;-66
2023/10/19 05:23:45;;;;;;;;;4.67;2.67;;;;;16.30;87.24;98701.38;5036590;28;45385;-67
2023/10/19 05:26:10;;;;;;;;;5.67;4.00;;;;;16.29;86.78;98702.31;5035426;28;45446;-67
2023/10/19 05:28:36;;;;;;;;;3.33;2.00;;;;;16.40;87.35;98701.75;5036883;28;45353;-70
2023/10/19 05:31:05;;;;;;;;;7.33;3.00;;;;;16.25;86.55;98663.81;5037276;28;45460;-67
2023/10/19 05:33:32;;;;;;;;;3.00;2.33;;;;;16.45;86.80;98694.44;5037490;28;45432;-67
2023/10/19 05:35:57;;;;;;;;;6.67;2.00;;;;;16.28;86.39;98655.72;5034420;28;45431;-66
2023/10/19 05:38:27;;;;;;;;;3.00;3.00;;;;;16.49;86.38;98669.53;5030746;28;45499;-67
2023/10/19 05:40:52;;;;;;;;;3.67;3.00;;;;;16.25;86.08;98613.63;5024157;28;45638;-67
2023/10/19 05:43:18;;;;;;;;;6.33;2.00;;;;;16.43;85.87;98648.75;5027205;28;45533;-67
2023/10/19 05:48:58;;;;;;;;;2.00;2.00;;;;;16.47;86.23;98659.06;5023557;28;45429;-66
2023/10/19 05:51:28;;;;;;;;;4.67;2.67;;;;;16.39;85.96;98650.69;5032651;28;46273;-67
2023/10/19 05:54:18;;;;;;;;;3.00;2.67;;;;;16.48;86.12;98675.75;5018192;28;45494;-66
2023/10/19 05:56:51;;;;;;;;;3.33;2.00;;;;;16.48;86.10;98668.69;5012174;28;45654;-66
2023/10/19 06:00:05;;;;;;;;;;;;;;;;;;;;;
2023/10/19 06:02:34;;;;;;;;;3.67;1.00;;;;;16.35;86.20;98662.38;5026579;28;73983;-67
2023/10/19 06:05:04;;;;;;;;;5.00;3.33;;;;;16.32;86.21;98657.25;5036352;28;45384;-66
2023/10/19 06:08:24;;;;;;;;;3.33;3.00;;;;;16.48;86.35;98667.84;5027021;28;45485;-68
2023/10/19 06:11:42;;;;;;;;;5.33;2.00;;;;;16.52;86.41;98675.50;5016532;28;45453;-66
2023/10/19 06:14:09;;;;;;;;;3.00;2.33;;;;;16.46;86.84;98652.06;5022159;28;46442;-67
2023/10/19 06:17:04;;;;;;;;;2.33;2.33;;;;;16.50;86.49;98637.75;5025566;28;45538;-67
2023/10/19 06:19:31;;;;;;;;;5.67;3.00;;;;;16.50;87.25;98650.97;5022326;28;45398;-66
2023/10/19 06:21:59;;;;;;;;;2.67;2.33;;;;;16.47;87.10;98637.94;5016178;28;45396;-66
2023/10/19 06:24:26;;;;;;;;;3.33;3.33;;;;;16.52;86.73;98635.88;5032133;28;46223;-67
2023/10/19 06:26:54;;;;;;;;;6.67;3.67;;;;;16.47;87.11;98637.94;5036923;28;45247;-66
2023/10/19 06:29:20;;;;;;;;;6.00;5.00;;;;;16.50;86.74;98648.31;5037510;28;45474;-67
2023/10/19 06:31:49;;;;;;;;;6.33;4.00;;;;;16.47;86.80;98629.16;5034025;28;45530;-66
2023/10/19 06:34:17;;;;;;;;;6.33;5.00;;;;;16.51;86.88;98631.53;5035093;28;46805;-66
2023/10/19 06:36:43;;;;;;;;;6.33;4.00;;;;;16.53;86.84;98632.28;5033198;28;45819;-66
2023/10/19 06:39:08;;;;;;;;;8.67;6.00;;;;;16.45;86.87;98626.59;5038891;28;45420;-65
2023/10/19 06:41:40;;;;;;;;;6.33;4.00;;;;;16.54;86.47;98630.50;5033464;28;45398;-68
2023/10/19 06:44:06;;;;;;;;;9.67;5.33;;;;;16.50;86.36;98621.88;5040446;28;46502;-67
2023/10/19 06:46:32;;;;;;;;;8.33;6.33;;;;;16.66;86.21;98643.03;5021516;28;45466;-72
2023/10/19 06:49:00;;;;;;;;;4.67;3.67;;;;;16.57;86.11;98625.03;5049000;28;45512;-67
2023/10/19 06:51:27;;;;;;;;;5.00;2.33;;;;;16.72;85.85;98642.66;5027632;28;45333;-67
2023/10/19 06:53:53;;;;;;;;;4.33;4.33;;;;;16.73;85.56;98640.91;5024427;28;46236;-69
2023/10/19 06:56:41;;;;;;;;;6.33;4.00;;;;;16.80;85.54;98638.78;5022704;28;45812;-67
2023/10/19 06:59:07;;;;;;;;;3.67;3.00;;;;;16.74;84.97;98618.81;5024515;28;45576;-66
2023/10/19 07:01:32;;;;;;;;;2.00;2.00;;;;;16.91;84.64;98634.56;5030137;28;45543;-67
2023/10/19 07:03:58;;;;;;;;;4.00;4.00;;;;;16.99;84.26;98638.56;5044450;28;46706;-66
2023/10/19 07:06:24;;;;;;;;;5.33;4.00;;;;;16.98;84.00;98634.22;5031990;28;45490;-67
2023/10/19 07:08:49;;;;;;;;;5.33;4.33;;;;;16.90;84.27;98627.59;5034330;28;45409;-67
2023/10/19 07:11:15;;;;;;;;;3.00;3.00;;;;;16.84;84.61;98622.66;5035099;28;45374;-65
2023/10/19 07:13:41;;;;;;;;;6.33;3.00;;;;;16.89;84.42;98633.81;5036870;28;45457;-67
2023/10/19 07:16:09;;;;;;;;;3.33;3.33;;;;;16.86;84.66;98631.34;5024857;28;45578;-67
2023/10/19 07:18:34;;;;;;;;;5.67;4.67;;;;;16.73;84.76;98606.53;5021796;28;45386;-64
2023/10/19 07:21:03;;;;;;;;;6.00;4.00;;;;;16.79;84.98;98613.28;5042630;28;45458;-68
2023/10/19 07:23:29;;;;;;;;;3.33;3.00;;;;;16.88;84.81;98632.13;5020833;28;47827;-67
2023/10/19 07:25:56;;;;;;;;;8.00;4.00;;;;;16.85;85.13;98623.53;5025411;28;45524;-66
2023/10/19 07:28:26;;;;;;;;;3.67;3.67;;;;;16.81;84.79;98619.34;5018086;28;45565;-67
2023/10/19 07:30:52;;;;;;;;;6.33;4.33;;;;;16.72;85.21;98612.75;5018312;28;45554;-65
2023/10/19 07:33:19;;;;;;;;;4.00;3.00;;;;;16.75;85.06;98617.84;5018072;28;45449;-67
2023/10/19 07:35:54;;;;;;;;;5.33;3.00;;;;;16.76;85.37;98619.56;5018867;28;45424;-69
2023/10/19 07:38:42;;;;;;;;;4.67;4.00;;;;;16.69;85.36;98605.84;5018772;28;45371;-70
2023/10/19 07:41:09;;;;;;;;;3.00;3.00;;;;;16.56;85.47;98591.63;5017568;28;45612;-69
2023/10/19 07:43:35;;;;;;;;;2.67;2.67;;;;;16.67;85.53;98594.50;5024132;28;45482;-71
2023/10/19 07:46:01;;;;;;;;;8.00;4.00;;;;;16.78;84.92;98579.84;5018815;28;45413;-71
2023/10/19 07:48:27;;;;;;;;;3.33;2.67;;;;;16.82;84.87;98579.56;5034535;28;45326;-69
2023/10/19 07:50:56;;;;;;;;;4.67;3.00;;;;;16.54;84.94;98557.38;5039504;28;45283;-70
2023/10/19 07:53:22;;;;;;;;;4.33;2.67;;;;;16.54;85.01;98540.66;5038733;28;46011;-72
2023/10/19 07:55:48;;;;;;;;;2.33;2.33;;;;;16.37;84.76;98515.19;5024776;28;45346;-67
2023/10/19 07:58:14;;;;;;;;;2.67;2.33;;;;;16.81;84.52;98585.81;5027467;28;46518;-71
2023/10/19 08:00:42;;;;;;;;;7.33;5.00;;;;;16.66;84.85;98578.75;5034475;28;45410;-69
2023/10/19 08:03:08;;;;;;;;;5.33;3.00;;;;;16.53;84.72;98536.31;5036644;28;46437;-70
2023/10/19 08:05:36;;;;;;;;;7.67;2.67;;;;;16.88;84.27;98597.75;5036974;28;45566;-69
2023/10/19 08:08:05;;;;;;;;;2.00;2.00;;;;;16.85;84.45;98603.22;5035387;28;45602;-71
2023/10/19 08:10:37;;;;;;;;;5.00;4.00;;;;;16.88;84.35;98592.47;5036024;28;45655;-69
2023/10/19 08:13:07;;;;;;;;;4.00;4.00;;;;;16.57;84.25;98543.13;5032616;28;47857;-68
2023/10/19 08:15:36;;;;;;;;;4.67;3.00;;;;;16.66;83.79;98555.81;5035679;28;45972;-70
2023/10/19 08:18:02;;;;;;;;;4.33;2.33;;;;;16.52;83.76;98532.81;5038389;28;45569;-70
2023/10/19 08:20:30;;;;;;;;;3.00;3.00;;;;;16.39;83.33;98486.88;5034926;28;45565;-72
2023/10/19 08:22:57;;;;;;;;;2.00;2.00;;;;;17.08;82.84;98593.06;5024648;28;45529;-71
2023/10/19 08:25:23;;;;;;;;;4.33;3.33;;;;;16.92;83.05;98549.03;5032405;28;45405;-70
2023/10/19 08:27:50;;;;;;;;;4.67;3.00;;;;;17.18;81.95;98573.09;5016856;28;46013;-71
2023/10/19 08:30:18;;;;;;;;;6.00;6.00;;;;;17.35;81.39;98580.88;5029631;28;46125;-70
2023/10/19 08:32:53;;;;;;;;;5.33;3.00;;;;;17.30;81.31;98558.28;5016979;28;46374;-70
2023/10/19 08:35:24;;;;;;;;;3.33;3.00;;;;;17.38;80.15;98550.72;5031334;28;45392;-67
2023/10/19 08:37:52;;;;;;;;;3.00;2.33;;;;;17.51;79.84;98566.69;5035489;28;45544;-68
2023/10/19 08:40:19;;;;;;;;;4.00;2.00;;;;;17.49;79.62;98556.22;5033612;28;45544;-70
2023/10/19 08:43:00;;;;;;;;;2.00;2.00;;;;;17.58;79.23;98568.91;5031398;28;46601;-68
2023/10/19 08:45:26;;;;;;;;;2.67;2.67;;;;;17.71;78.91;98579.56;5027710;28;45672;-71
2023/10/19 08:48:00;;;;;;;;;3.00;2.00;;;;;17.34;78.51;98493.63;5034456;28;45510;-69
2023/10/19 08:50:30;;;;;;;;;3.00;2.00;;;;;17.52;78.32;98523.41;5035148;28;45623;-67
2023/10/19 08:53:02;;;;;;;;;2.00;2.00;;;;;17.68;78.18;98555.09;5034726;28;45593;-69
2023/10/19 08:55:28;;;;;;;;;3.00;3.00;;;;;17.81;78.25;98564.00;5028886;28;45475;-69
2023/10/19 08:57:54;;;;;;;;;4.67;3.00;;;;;17.81;77.86;98548.09;5030702;28;45568;-69
2023/10/19 09:00:24;;;;;;;;;2.33;2.33;;;;;17.97;77.53;98561.25;5025056;28;45383;-68
2023/10/19 09:02:51;;;;;;;;;3.33;2.00;;;;;18.09;76.82;98557.81;5029585;28;46033;-68
2023/10/19 09:05:25;;;;;;;;;3.33;2.67;;;;;18.10;76.42;98562.16;5027256;28;46427;-68
2023/10/19 09:07:55;;;;;;;;;3.67;3.67;;;;;18.14;76.49;98557.53;5030155;28;45911;-68
2023/10/19 09:10:26;;;;;;;;;5.00;2.33;;;;;18.16;76.25;98568.88;5028459;28;45373;-69
2023/10/19 09:13:22;;;;;;;;;4.00;2.00;;;;;18.17;76.54;98568.75;5030758;28;46603;-66
2023/10/19 09:15:49;;;;;;;;;2.00;2.00;;;;;18.28;76.04;98569.91;5025818;28;45540;-67
2023/10/19 09:18:16;;;;;;;;;4.00;2.33;;;;;18.39;75.93;98567.41;5027087;28;45686;-66
2023/10/19 09:20:52;;;;;;;;;4.00;2.67;;;;;18.61;74.47;98564.22;5033610;28;45398;-68
2023/10/19 09:23:30;;;;;;;;;2.67;2.00;;;;;18.68;73.79;98549.59;5032167;28;45657;-65
2023/10/19 09:26:05;;;;;;;;;2.00;2.00;;;;;18.83;73.94;98547.75;5022269;28;45926;-66
2023/10/19 09:28:34;;;;;;;;;2.33;2.33;;;;;19.61;71.17;98534.44;5025087;28;45563;-70
2023/10/19 09:31:01;;;;;;;;;3.00;2.00;;;;;20.16;68.44;98539.47;5023557;28;45938;-68
2023/10/19 09:33:33;;;;;;;;;1.67;1.00;;;;;20.58;66.87;98511.56;5030721;28;46401;-67
2023/10/19 09:36:01;;;;;;;;;3.00;2.00;;;;;21.14;64.29;98509.09;5029801;28;45516;-67
2023/10/19 09:38:27;;;;;;;;;3.67;2.33;;;;;21.80;61.74;98490.59;5015875;28;45334;-67
2023/10/19 09:40:56;;;;;;;;;2.00;2.00;;;;;21.81;61.99;98505.63;5028017;28;45344;-70
2023/10/19 09:43:34;;;;;;;;;3.00;3.00;;;;;22.40;59.78;98487.59;5034139;28;45465;-71
2023/10/19 09:46:05;;;;;;;;;3.00;1.00;;;;;22.00;60.28;98481.00;5025696;28;45721;-68
2023/10/19 09:48:35;;;;;;;;;1.75;1.25;;;;;21.55;61.79;98493.53;5025615;28;45536;-69
2023/10/19 09:51:02;;;;;;;;;2.33;2.33;;;;;21.02;63.64;98510.00;5032686;28;45615;-72
2023/10/19 09:53:31;;;;;;;;;3.33;2.67;;;;;20.72;64.01;98495.41;5022086;28;45380;-67
2023/10/19 09:55:58;;;;;;;;;2.00;2.00;;;;;21.31;63.24;98506.94;5034843;28;45436;-68
2023/10/19 09:58:45;;;;;;;;;1.67;1.00;;;;;23.22;58.03;98489.63;5035607;28;45410;-67
2023/10/19 10:01:13;;;;;;;;;3.00;1.50;;;;;25.64;51.22;98501.63;5040096;28;45443;-69
2023/10/19 10:03:52;;;;;;;;;3.00;1.00;;;;;27.38;46.67;98463.75;5040219;28;46052;-67
2023/10/19 10:06:50;;;;;;;;;3.00;3.00;;;;;29.21;42.39;98475.63;5040893;28;45462;-68
2023/10/19 10:09:21;;;;;;;;;2.75;1.25;;;;;30.05;40.18;98486.84;5038224;28;45497;-69
2023/10/19 10:11:49;;;;;;;;;1.00;1.00;;;;;30.99;39.48;98471.38;5022557;28;45392;-67
2023/10/19 10:14:24;;;;;;;;;1.20;1.20;;;;;31.45;37.87;98471.31;5040367;28;45724;-67
2023/10/19 10:17:03;;;;;;;;;2.20;2.20;;;;;28.52;41.78;98484.03;5039161;28;45515;-68
2023/10/19 10:19:29;;;;;;;;;2.40;2.00;;;;;26.62;45.97;98465.22;5039555;28;45491;-69
2023/10/19 10:22:11;;;;;;;;;2.25;2.00;;;;;25.86;48.08;98454.81;5038308;28;45406;-70
2023/10/19 10:24:47;;;;;;;;;2.00;2.00;;;;;25.23;49.25;98457.34;5039329;28;45460;-69
2023/10/19 10:27:18;;;;;;;;;4.20;2.20;;;;;27.53;45.58;98449.72;5051522;28;45462;-69
2023/10/19 10:30:05;;;;;;;;;2.60;2.00;;;;;30.71;39.39;98453.03;5026600;28;45517;-71
2023/10/19 10:32:50;;;;;;;;;5.25;3.00;;;;;32.70;35.92;98449.50;5027334;28;45514;-69
2023/10/19 10:35:39;;;;;;;;;2.40;2.00;;;;;34.06;33.24;98435.53;5035983;28;45654;-69
2023/10/19 10:38:06;;;;;;;;;2.20;2.20;;;;;34.54;31.94;98397.41;5030532;28;45537;-69
2023/10/19 10:40:47;;;;;;;;;3.60;2.40;;;;;35.56;30.84;98430.59;5037186;28;45490;-68
2023/10/19 10:43:13;;;;;;;;;1.80;1.80;;;;;36.21;30.31;98437.91;5037618;28;45308;-70
2023/10/19 10:45:39;;;;;;;;;2.50;2.00;;;;;36.61;28.63;98441.25;5035724;28;45506;-69
2023/10/19 10:48:12;;;;;;;;;1.60;0.80;;;;;37.13;28.81;98411.84;5034780;28;45423;-68
2023/10/19 10:50:39;;;;;;;;;1.00;1.00;;;;;37.94;26.81;98401.72;5036112;28;45491;-69
2023/10/19 10:53:05;;;;;;;;;2.00;2.00;;;;;38.50;26.36;98380.53;5036344;28;45987;-69
2023/10/19 10:55:32;;;;;;;;;1.20;1.20;;;;;38.16;26.64;98417.63;5036145;28;45549;-69
2023/10/19 10:57:58;;;;;;;;;2.40;2.40;;;;;38.32;26.54;98399.72;5033583;28;45533;-68
2023/10/19 11:00:26;;;;;;;;;2.50;1.75;;;;;39.31;25.59;98399.97;5034872;28;45494;-69
2023/10/19 11:03:09;;;;;;;;;4.20;1.80;;;;;40.40;24.99;98399.19;5035319;28;45454;-68
2023/10/19 11:05:37;;;;;;;;;1.80;1.80;;;;;40.87;23.58;98378.84;5033439;28;47494;-68
2023/10/19 11:08:13;;;;;;;;;2.00;2.00;;;;;40.73;23.83;98381.09;5035439;28;45564;-68
2023/10/19 11:10:42;;;;;;;;;2.00;1.00;;;;;40.40;23.54;98387.38;5035006;28;45730;-68
2023/10/19 11:13:10;;;;;;;;;0.80;0.80;;;;;39.98;24.06;98384.94;5035468;28;45517;-67
2023/10/19 11:15:37;;;;;;;;;2.20;1.80;;;;;39.90;23.92;98388.09;5036134;28;46346;-70
2023/10/19 11:18:04;;;;;;;;;1.00;1.00;;;;;39.80;23.98;98383.22;5034910;28;45547;-69
2023/10/19 11:20:30;;;;;;;;;3.00;1.20;;;;;39.52;23.60;98373.88;5034822;28;45611;-67
2023/10/19 11:23:00;;;;;;;;;0.40;0.40;;;;;39.02;24.83;98369.78;5036563;28;45464;-68
2023/10/19 11:25:30;;;;;;;;;1.20;1.00;;;;;39.48;24.48;98358.19;5052057;28;47597;-68
2023/10/19 11:28:01;;;;;;;;;3.00;1.40;;;;;38.93;24.61;98367.63;5051902;28;45609;-69
2023/10/19 11:30:29;;;;;;;;;4.00;1.60;;;;;38.48;24.46;98370.91;5035242;28;45315;-68
2023/10/19 11:33:02;;;;;;;;;1.20;1.20;;;;;38.45;24.51;98363.97;5032807;28;45494;-66
2023/10/19 11:35:30;;;;;;;;;0.20;0.20;;;;;37.45;25.39;98373.53;5035088;28;46569;-68
2023/10/19 11:38:04;;;;;;;;;2.00;2.00;;;;;35.60;28.02;98373.84;5010207;28;46002;-68
2023/10/19 11:40:30;;;;;;;;;2.80;1.80;;;;;36.04;27.39;98369.44;5016882;28;45947;-67
2023/10/19 11:42:56;;;;;;;;;14.20;10.80;;;;;36.36;26.85;98355.88;5032708;28;45498;-68
2023/10/19 11:45:25;;;;;;;;;4.50;3.00;;;;;36.44;26.30;98350.13;5027505;28;46018;-67
2023/10/19 11:47:51;;;;;;;;;3.00;2.00;;;;;36.03;27.43;98351.44;5031449;28;45522;-68
2023/10/19 11:50:17;;;;;;;;;3.25;2.25;;;;;35.02;28.95;98358.28;5030276;28;45391;-67
2023/10/19 11:52:48;;;;;;;;;4.00;3.20;;;;;34.55;29.68;98352.03;5033683;28;45492;-68
2023/10/19 11:55:14;;;;;;;;;2.60;1.60;;;;;33.83;29.88;98329.16;5032342;28;46248;-68
2023/10/19 11:57:43;;;;;;;;;2.00;2.00;;;;;32.33;32.34;98339.50;4984583;28;1362051;-68
2023/10/19 12:00:23;;;;;;;;;1.80;1.80;;;;;29.92;35.22;98315.56;5030114;28;45719;-69
2023/10/19 12:02:49;;;;;;;;;4.60;3.00;;;;;29.06;37.53;98338.84;5032479;28;45647;-69